createdAt,value
2023-03-11T00:02:27.478Z,9.67
2023-03-11T00:04:58.047Z,9.68
2023-03-11T00:07:29.914Z,9.67
2023-03-11T00:10:01.898Z,9.66
2023-03-11T00:12:33.751Z,9.65
2023-03-11T00:15:06.416Z,9.66
2023-03-11T00:17:38.288Z,9.65
2023-03-11T00:20:17.024Z,9.63
2023-03-11T00:22:51.074Z,9.61
2023-03-11T00:25:24.298Z,9.58
2023-03-11T00:27:56.884Z,9.56
2023-03-11T00:30:29.930Z,9.54
2023-03-11T00:33:02.153Z,9.51
2023-03-11T00:35:35.506Z,9.48
2023-03-11T00:38:10.022Z,9.42
2023-03-11T00:40:42.569Z,9.34
2023-03-11T00:43:14.990Z,9.26
2023-03-11T00:45:47.011Z,9.19
2023-03-11T00:48:19.237Z,9.13
2023-03-11T00:50:50.533Z,9.06
2023-03-11T00:53:23.419Z,8.98
2023-03-11T00:55:55.555Z,8.92
2023-03-11T00:58:29.160Z,8.88
2023-03-11T01:01:02.042Z,8.83
2023-03-11T01:03:34.955Z,8.80
2023-03-11T01:06:08.079Z,8.78
2023-03-11T01:08:40.501Z,8.76
2023-03-11T01:11:12.524Z,8.75
2023-03-11T01:13:44.561Z,8.71
2023-03-11T01:16:16.504Z,8.67
2023-03-11T01:18:48.606Z,8.63
2023-03-11T01:21:19.027Z,8.59
2023-03-11T01:23:50.983Z,8.56
2023-03-11T01:26:22.968Z,8.53
2023-03-11T01:28:53.396Z,8.50
2023-03-11T01:31:28.133Z,8.43
2023-03-11T01:34:00.421Z,8.37
2023-03-11T01:36:30.918Z,8.32
2023-03-11T01:39:03.125Z,8.25
2023-03-11T01:41:35.130Z,8.21
2023-03-11T01:44:05.944Z,8.17
2023-03-11T01:47:16.241Z,8.10
2023-03-11T01:49:49.977Z,8.05
2023-03-11T01:52:22.289Z,8.01
2023-03-11T01:54:56.292Z,7.99
2023-03-11T01:57:28.370Z,7.98
2023-03-11T02:00:10.345Z,7.96
2023-03-11T02:02:49.463Z,7.93
2023-03-11T02:05:22.882Z,7.91
2023-03-11T02:07:56.842Z,7.85
2023-03-11T02:10:33.596Z,7.80
2023-03-11T02:13:06.779Z,7.74
2023-03-11T02:15:40.018Z,7.70
2023-03-11T02:18:14.695Z,7.67
2023-03-11T02:20:52.176Z,7.64
2023-03-11T02:23:31.027Z,7.60
2023-03-11T02:26:10.922Z,7.58
2023-03-11T02:28:44.183Z,7.55
2023-03-11T02:31:16.884Z,7.53
2023-03-11T02:33:52.263Z,7.53
2023-03-11T02:36:39.293Z,7.54
2023-03-11T02:39:12.214Z,7.56
2023-03-11T02:41:47.300Z,7.57
2023-03-11T02:44:19.434Z,7.54
2023-03-11T02:46:51.681Z,7.49
2023-03-11T02:49:25.780Z,7.45
2023-03-11T02:51:59.323Z,7.40
2023-03-11T02:54:33.760Z,7.34
2023-03-11T02:57:06.017Z,7.30
2023-03-11T02:59:36.309Z,7.27
2023-03-11T03:02:08.719Z,7.23
2023-03-11T03:04:41.326Z,7.20
2023-03-11T03:07:14.293Z,7.17
2023-03-11T03:09:46.345Z,7.18
2023-03-11T03:12:18.265Z,7.13
2023-03-11T03:14:50.545Z,7.09
2023-03-11T03:17:23.224Z,7.08
2023-03-11T03:19:55.886Z,7.08
2023-03-11T03:22:29.516Z,7.08
2023-03-11T03:25:02.044Z,7.08
2023-03-11T03:27:36.410Z,7.06
2023-03-11T03:30:12.136Z,7.01
2023-03-11T03:32:44.928Z,6.95
2023-03-11T03:35:19.207Z,6.92
2023-03-11T03:38:09.360Z,6.88
2023-03-11T03:40:48.744Z,6.83
2023-03-11T03:43:22.896Z,6.78
2023-03-11T03:46:03.052Z,6.75
2023-03-11T03:48:38.115Z,6.70
2023-03-11T03:51:12.476Z,6.61
2023-03-11T03:53:48.080Z,6.53
2023-03-11T03:56:21.005Z,6.39
2023-03-11T03:58:54.144Z,6.28
2023-03-11T04:01:26.875Z,6.15
2023-03-11T04:03:59.060Z,6.06
2023-03-11T04:06:31.133Z,5.99
2023-03-11T04:09:06.635Z,5.90
2023-03-11T04:11:40.262Z,5.81
2023-03-11T04:14:12.621Z,5.76
2023-03-11T04:16:49.436Z,5.67
2023-03-11T04:19:22.367Z,5.54
2023-03-11T04:21:54.419Z,5.39
2023-03-11T04:24:26.755Z,5.21
2023-03-11T04:26:59.146Z,5.06
2023-03-11T04:29:31.553Z,5.00
2023-03-11T04:32:03.512Z,4.86
2023-03-11T04:34:33.882Z,4.74
2023-03-11T04:37:05.932Z,4.58
2023-03-11T04:39:38.914Z,4.45
2023-03-11T04:42:14.123Z,4.33
2023-03-11T04:44:47.278Z,4.21
2023-03-11T04:47:17.879Z,4.10
2023-03-11T04:49:50.092Z,3.97
2023-03-11T04:52:22.049Z,3.83
2023-03-11T04:54:54.069Z,3.70
2023-03-11T04:57:24.668Z,3.55
2023-03-11T04:59:56.704Z,3.41
2023-03-11T05:02:29.124Z,3.29
2023-03-11T05:05:03.851Z,3.18
2023-03-11T05:07:38.048Z,3.09
2023-03-11T05:10:12.520Z,2.98
2023-03-11T05:12:44.738Z,2.86
2023-03-11T05:15:16.778Z,2.74
2023-03-11T05:17:48.910Z,2.66
2023-03-11T05:20:21.469Z,2.59
2023-03-11T05:22:53.350Z,2.53
2023-03-11T05:25:26.012Z,2.49
2023-03-11T05:27:57.972Z,2.47
2023-03-11T05:30:28.604Z,2.46
2023-03-11T05:33:01.647Z,2.46
2023-03-11T05:35:33.686Z,2.49
2023-03-11T05:38:06.111Z,2.49
2023-03-11T05:40:38.393Z,2.52
2023-03-11T05:43:10.464Z,2.56
2023-03-11T05:45:44.357Z,2.60
2023-03-11T05:48:16.221Z,2.63
2023-03-11T05:50:48.140Z,2.65
2023-03-11T05:53:20.515Z,2.65
2023-03-11T05:56:00.111Z,2.65
2023-03-11T05:58:33.602Z,2.67
2023-03-11T06:01:11.181Z,2.68
2023-03-11T06:03:55.063Z,2.70
2023-03-11T06:06:31.205Z,2.72
2023-03-11T06:09:05.238Z,2.74
2023-03-11T06:11:52.166Z,2.78
2023-03-11T06:14:34.305Z,2.80
2023-03-11T06:17:06.330Z,2.81
2023-03-11T06:19:38.297Z,2.83
2023-03-11T06:22:10.790Z,2.84
2023-03-11T06:24:43.600Z,2.83
2023-03-11T06:27:17.171Z,2.85
2023-03-11T06:29:55.450Z,2.85
2023-03-11T06:32:29.707Z,2.85
2023-03-11T06:35:02.128Z,2.85
2023-03-11T06:37:36.835Z,2.84
2023-03-11T06:40:12.434Z,2.86
2023-03-11T06:42:46.702Z,2.84
2023-03-11T06:45:20.695Z,2.83
2023-03-11T06:47:53.899Z,2.80
2023-03-11T06:50:24.871Z,2.79
2023-03-11T06:53:00.328Z,2.76
2023-03-11T06:55:44.007Z,2.72
2023-03-11T06:58:18.268Z,2.66
2023-03-11T07:00:52.596Z,2.61
2023-03-11T07:03:24.901Z,2.55
2023-03-11T07:06:00.855Z,2.46
2023-03-11T07:08:39.192Z,2.39
2023-03-11T07:11:20.188Z,2.33
2023-03-11T07:14:08.705Z,2.28
2023-03-11T07:17:23.589Z,2.22
2023-03-11T07:20:12.601Z,2.16
2023-03-11T07:22:44.544Z,2.07
2023-03-11T07:25:21.052Z,2.02
2023-03-11T07:28:00.307Z,1.97
2023-03-11T07:30:55.608Z,1.94
2023-03-11T07:33:35.507Z,1.89
2023-03-11T07:36:16.624Z,1.83
2023-03-11T07:38:49.266Z,1.78
2023-03-11T07:41:21.824Z,1.75
2023-03-11T07:43:57.100Z,1.72
2023-03-11T07:46:30.794Z,1.69
2023-03-11T07:49:03.828Z,1.66
2023-03-11T07:51:38.097Z,1.62
2023-03-11T07:54:11.391Z,1.56
2023-03-11T07:56:44.499Z,1.48
2023-03-11T07:59:16.467Z,1.41
2023-03-11T08:01:48.624Z,1.35
2023-03-11T08:04:20.426Z,1.29
2023-03-11T08:06:52.315Z,1.22
2023-03-11T08:09:24.395Z,1.15
2023-03-11T08:11:54.840Z,1.10
2023-03-11T08:14:26.891Z,1.06
2023-03-11T08:16:58.736Z,1.03
2023-03-11T08:19:30.574Z,1.00
2023-03-11T08:22:04.320Z,0.97
2023-03-11T08:24:36.785Z,0.94
2023-03-11T08:27:07.206Z,0.92
2023-03-11T08:29:39.245Z,0.89
2023-03-11T08:32:11.591Z,0.87
2023-03-11T08:34:43.390Z,0.84
2023-03-11T08:37:15.254Z,0.80
2023-03-11T08:39:47.594Z,0.78
2023-03-11T08:42:18.573Z,0.75
2023-03-11T08:44:51.001Z,0.71
2023-03-11T08:47:23.240Z,0.67
2023-03-11T08:49:53.876Z,0.66
2023-03-11T08:52:25.787Z,0.64
2023-03-11T08:54:57.730Z,0.63
2023-03-11T08:57:29.683Z,0.61
2023-03-11T09:00:01.787Z,0.61
2023-03-11T09:02:34.223Z,0.61
2023-03-11T09:05:07.760Z,0.62
2023-03-11T09:07:40.254Z,0.64
2023-03-11T09:10:12.921Z,0.66
2023-03-11T09:12:44.992Z,0.66
2023-03-11T09:15:17.057Z,0.67
2023-03-11T09:17:47.575Z,0.71
2023-03-11T09:20:19.852Z,0.73
2023-03-11T09:22:52.048Z,0.78
2023-03-11T09:25:24.352Z,0.84
2023-03-11T09:27:56.432Z,0.90
2023-03-11T09:30:28.800Z,0.95
2023-03-11T09:33:00.664Z,0.99
2023-03-11T09:35:32.884Z,1.03
2023-03-11T09:38:03.161Z,1.06
2023-03-11T09:40:58.080Z,1.09
2023-03-11T09:43:48.281Z,1.14
2023-03-11T09:46:49.534Z,1.18
2023-03-11T09:49:31.115Z,1.20
2023-03-11T09:52:10.619Z,1.21
2023-03-11T09:54:47.127Z,1.18
2023-03-11T09:57:23.986Z,1.17
2023-03-11T09:59:57.048Z,1.18
2023-03-11T10:02:29.582Z,1.18
2023-03-11T10:05:09.001Z,1.17
2023-03-11T10:07:43.277Z,1.15
2023-03-11T10:10:16.124Z,1.17
2023-03-11T10:12:57.157Z,1.15
2023-03-11T10:15:49.121Z,1.13
2023-03-11T10:18:35.164Z,1.13
2023-03-11T10:21:15.519Z,1.13
2023-03-11T10:24:03.324Z,1.13
2023-03-11T10:26:38.525Z,1.11
2023-03-11T10:29:21.226Z,1.09
2023-03-11T10:31:59.887Z,1.10
2023-03-11T10:34:38.306Z,1.15
2023-03-11T10:37:15.702Z,1.18
2023-03-11T10:39:49.295Z,1.17
2023-03-11T10:42:25.274Z,1.12
2023-03-11T10:44:57.170Z,1.08
2023-03-11T10:47:30.476Z,1.05
2023-03-11T10:50:02.373Z,1.03
2023-03-11T10:52:42.569Z,1.03
2023-03-11T10:55:20.473Z,1.02
2023-03-11T10:57:53.718Z,1.01
2023-03-11T11:00:32.979Z,1.02
2023-03-11T11:03:06.760Z,1.01
2023-03-11T11:05:38.893Z,1.00
2023-03-11T11:08:16.279Z,1.02
2023-03-11T11:10:56.186Z,1.01
2023-03-11T11:13:30.272Z,1.01
2023-03-11T11:16:05.743Z,1.02
2023-03-11T11:18:44.093Z,1.04
2023-03-11T11:21:19.085Z,1.07
2023-03-11T11:24:03.787Z,1.08
2023-03-11T11:26:35.934Z,1.08
2023-03-11T11:29:16.533Z,1.11
2023-03-11T11:31:49.177Z,1.15
2023-03-11T11:34:31.339Z,1.13
2023-03-11T11:37:03.543Z,1.10
2023-03-11T11:39:51.359Z,1.08
2023-03-11T11:42:25.320Z,1.05
2023-03-11T11:45:03.511Z,1.03
2023-03-11T11:47:43.066Z,1.02
2023-03-11T11:50:21.460Z,1.04
2023-03-11T11:52:58.474Z,1.08
2023-03-11T11:55:31.323Z,1.12
2023-03-11T11:58:03.311Z,1.15
2023-03-11T12:00:45.162Z,1.18
2023-03-11T12:03:39.986Z,1.21
2023-03-11T12:06:21.780Z,1.22
2023-03-11T12:09:05.110Z,1.25
2023-03-11T12:11:43.033Z,1.26
2023-03-11T12:14:22.749Z,1.27
2023-03-11T12:16:59.035Z,1.28
2023-03-11T12:19:40.708Z,1.35
2023-03-11T12:22:47.611Z,1.42
2023-03-11T12:25:36.557Z,1.49
2023-03-11T12:28:19.616Z,1.52
2023-03-11T12:30:55.397Z,1.57
2023-03-11T12:33:36.482Z,1.60
2023-03-11T12:36:21.926Z,1.60
2023-03-11T12:38:54.834Z,1.59
2023-03-11T12:41:47.020Z,1.57
2023-03-11T12:44:28.944Z,1.62
2023-03-11T12:47:21.297Z,1.69
2023-03-11T12:49:55.312Z,1.74
2023-03-11T12:52:52.055Z,1.77
2023-03-11T12:55:34.276Z,1.83
2023-03-11T12:58:45.305Z,1.85
2023-03-11T13:01:45.315Z,1.90
2023-03-11T13:04:31.435Z,1.98
2023-03-11T13:07:31.443Z,1.94
2023-03-11T13:10:13.511Z,1.86
2023-03-11T13:12:47.588Z,1.84
2023-03-11T13:15:36.768Z,1.83
2023-03-11T13:18:20.398Z,1.83
2023-03-11T13:20:57.148Z,1.87
2023-03-11T13:23:33.497Z,1.91
2023-03-11T13:26:25.677Z,1.97
2023-03-11T13:29:36.439Z,2.05
2023-03-11T13:32:37.358Z,2.10
2023-03-11T13:35:23.774Z,2.11
2023-03-11T13:38:19.016Z,2.06
2023-03-11T13:40:52.755Z,2.05
2023-03-11T13:43:26.163Z,2.05
2023-03-11T13:46:02.603Z,2.05
2023-03-11T13:48:40.628Z,2.05
2023-03-11T13:51:25.683Z,2.01
2023-03-11T13:54:05.472Z,1.99
2023-03-11T13:56:52.345Z,2.01
2023-03-11T13:59:32.140Z,2.05
2023-03-11T14:02:45.808Z,2.07
2023-03-11T14:05:41.290Z,2.08
2023-03-11T14:08:36.736Z,2.13
2023-03-11T14:11:28.781Z,2.16
2023-03-11T14:14:09.815Z,2.16
2023-03-11T14:16:55.350Z,2.12
2023-03-11T14:20:08.486Z,2.04
2023-03-11T14:26:09.782Z,1.57
2023-03-11T14:28:49.994Z,1.29
2023-03-11T14:31:54.524Z,1.09
2023-03-11T14:35:11.526Z,0.90
2023-03-11T14:38:10.003Z,0.76
2023-03-11T14:41:37.592Z,0.68
2023-03-11T14:44:59.812Z,0.65
2023-03-11T14:51:34.055Z,0.60
2023-03-11T14:58:15.333Z,0.66
2023-03-11T15:00:58.296Z,0.73
2023-03-11T15:03:39.929Z,0.83
2023-03-11T15:06:22.983Z,0.91
2023-03-11T15:09:09.259Z,0.95
2023-03-11T15:15:02.824Z,0.97
2023-03-11T15:18:03.163Z,0.99
2023-03-11T15:20:45.715Z,1.01
2023-03-11T15:23:24.106Z,1.07
2023-03-11T15:25:57.052Z,1.12
2023-03-11T15:28:29.582Z,1.14
2023-03-11T15:31:31.413Z,1.09
2023-03-11T15:34:22.942Z,1.01
2023-03-11T15:37:05.028Z,0.94
2023-03-11T15:39:48.583Z,0.89
2023-03-11T15:42:26.733Z,0.83
2023-03-11T15:45:05.875Z,0.77
2023-03-11T15:47:37.775Z,0.71
2023-03-11T15:50:35.217Z,0.67
2023-03-11T15:53:15.390Z,0.64
2023-03-11T15:55:48.107Z,0.62
2023-03-11T15:58:21.500Z,0.60
2023-03-11T16:00:56.166Z,0.58
2023-03-11T16:03:31.549Z,0.58
2023-03-11T16:06:03.620Z,0.58
2023-03-11T16:08:35.808Z,0.57
2023-03-11T16:11:07.238Z,0.55
2023-03-11T16:13:39.124Z,0.53
2023-03-11T16:16:16.713Z,0.51
2023-03-11T16:18:48.741Z,0.50
2023-03-11T16:21:22.747Z,0.52
2023-03-11T16:23:54.753Z,0.52
2023-03-11T16:26:26.524Z,0.51
2023-03-11T16:29:06.204Z,0.52
2023-03-11T16:31:46.198Z,0.52
2023-03-11T16:34:16.697Z,0.53
2023-03-11T16:36:51.299Z,0.53
2023-03-11T16:39:23.289Z,0.51
2023-03-11T16:41:55.462Z,0.51
2023-03-11T16:44:25.896Z,0.50
2023-03-11T16:46:57.776Z,0.49
2023-03-11T16:49:30.449Z,0.49
2023-03-11T16:52:02.548Z,0.49
2023-03-11T16:54:35.206Z,0.52
2023-03-11T16:57:07.405Z,0.52
2023-03-11T16:59:38.018Z,0.52
2023-03-11T17:02:12.813Z,0.53
2023-03-11T17:04:45.784Z,0.55
2023-03-11T17:07:16.315Z,0.56
2023-03-11T17:09:48.363Z,0.55
2023-03-11T17:12:20.551Z,0.54
2023-03-11T17:14:51.123Z,0.55
2023-03-11T17:17:23.724Z,0.52
2023-03-11T17:19:55.789Z,0.53
2023-03-11T17:22:27.879Z,0.54
2023-03-11T17:24:58.790Z,0.55
2023-03-11T17:27:32.629Z,0.54
2023-03-11T17:30:07.392Z,0.56
2023-03-11T17:32:39.669Z,0.58
2023-03-11T17:35:23.448Z,0.58
2023-03-11T17:37:58.334Z,0.61
2023-03-11T17:40:42.740Z,0.62
2023-03-11T17:43:26.107Z,0.66
2023-03-11T17:46:00.033Z,0.66
2023-03-11T17:48:38.333Z,0.68
2023-03-11T17:51:20.349Z,0.69
2023-03-11T17:54:06.036Z,0.70
2023-03-11T17:56:40.725Z,0.71
2023-03-11T17:59:13.180Z,0.73
2023-03-11T18:01:48.041Z,0.75
2023-03-11T18:04:20.352Z,0.76
2023-03-11T18:06:56.458Z,0.77
2023-03-11T18:09:29.414Z,0.78
2023-03-11T18:12:02.693Z,0.79
2023-03-11T18:14:42.991Z,0.79
2023-03-11T18:17:23.502Z,0.78
2023-03-11T18:20:20.130Z,0.76
2023-03-11T18:23:04.922Z,0.76
2023-03-11T18:25:48.664Z,0.75
2023-03-11T18:28:38.287Z,0.76
2023-03-11T18:31:23.324Z,0.75
2023-03-11T18:34:13.634Z,0.77
2023-03-11T18:36:49.319Z,0.79
2023-03-11T18:39:32.992Z,0.79
2023-03-11T18:42:10.805Z,0.80
2023-03-11T18:44:43.254Z,0.82
2023-03-11T18:47:15.418Z,0.82
2023-03-11T18:49:50.662Z,0.82
2023-03-11T18:52:26.275Z,0.83
2023-03-11T18:54:58.513Z,0.84
2023-03-11T19:00:22.341Z,0.85
2023-03-11T19:02:55.287Z,0.87
2023-03-11T19:05:27.721Z,0.89
2023-03-11T19:07:59.815Z,0.90
2023-03-11T19:10:31.958Z,0.88
2023-03-11T19:13:14.148Z,0.87
2023-03-11T19:15:58.453Z,0.86
2023-03-11T19:19:00.024Z,0.84
2023-03-11T19:21:51.300Z,0.81
2023-03-11T19:24:34.100Z,0.76
2023-03-11T19:27:11.798Z,0.72
2023-03-11T19:29:48.103Z,0.67
2023-03-11T19:32:31.574Z,0.62
2023-03-11T19:35:16.374Z,0.59
2023-03-11T19:38:03.467Z,0.54
2023-03-11T19:40:41.580Z,0.53
2023-03-11T19:43:29.116Z,0.52
2023-03-11T19:46:18.981Z,0.50
2023-03-11T19:51:50.759Z,0.46
2023-03-11T19:54:30.665Z,0.44
2023-03-11T19:57:04.425Z,0.42
2023-03-11T19:59:42.691Z,0.40
2023-03-11T20:02:25.289Z,0.36
2023-03-11T20:04:57.652Z,0.35
2023-03-11T20:07:35.432Z,0.32
2023-03-11T20:10:14.224Z,0.28
2023-03-11T20:13:01.470Z,0.26
2023-03-11T20:15:40.139Z,0.24
2023-03-11T20:18:12.182Z,0.23
2023-03-11T20:20:44.829Z,0.23
2023-03-11T20:23:25.545Z,0.23
2023-03-11T20:25:58.418Z,0.24
2023-03-11T20:28:39.809Z,0.25
2023-03-11T20:31:21.983Z,0.25
2023-03-11T20:33:57.551Z,0.24
2023-03-11T20:36:34.672Z,0.21
2023-03-11T20:39:10.132Z,0.18
2023-03-11T20:41:43.211Z,0.14
2023-03-11T20:44:16.509Z,0.12
2023-03-11T20:46:49.481Z,0.10
2023-03-11T20:49:21.989Z,0.08
2023-03-11T20:51:54.122Z,0.06
2023-03-11T20:54:26.051Z,0.04
2023-03-11T20:56:58.099Z,0.01
2023-03-11T20:59:28.675Z,-0.03
2023-03-11T21:02:00.739Z,-0.08
2023-03-11T21:04:33.015Z,-0.10
2023-03-11T21:07:05.054Z,-0.13
2023-03-11T21:09:35.800Z,-0.15
2023-03-11T21:12:08.820Z,-0.18
2023-03-11T21:14:41.569Z,-0.20
2023-03-11T21:17:13.647Z,-0.24
2023-03-11T21:19:46.217Z,-0.25
2023-03-11T21:22:18.410Z,-0.27
2023-03-11T21:24:51.848Z,-0.30
2023-03-11T21:27:27.187Z,-0.32
2023-03-11T21:30:00.279Z,-0.34
2023-03-11T21:32:33.928Z,-0.36
2023-03-11T21:35:07.295Z,-0.39
2023-03-11T21:37:39.333Z,-0.41
2023-03-11T21:40:11.333Z,-0.42
2023-03-11T21:42:43.487Z,-0.44
2023-03-11T21:45:14.300Z,-0.46
2023-03-11T21:47:46.533Z,-0.49
2023-03-11T21:50:19.009Z,-0.50
2023-03-11T21:52:51.130Z,-0.51
2023-03-11T21:55:23.323Z,-0.52
2023-03-11T21:57:55.591Z,-0.53
2023-03-11T22:00:26.127Z,-0.56
2023-03-11T22:02:59.163Z,-0.58
2023-03-11T22:05:31.145Z,-0.60
2023-03-11T22:08:03.085Z,-0.60
2023-03-11T22:10:35.204Z,-0.61
2023-03-11T22:13:07.211Z,-0.62
2023-03-11T22:15:39.322Z,-0.63
2023-03-11T22:18:11.774Z,-0.64
2023-03-11T22:20:44.466Z,-0.65
2023-03-11T22:23:16.369Z,-0.66
2023-03-11T22:25:48.183Z,-0.67
2023-03-11T22:28:20.241Z,-0.68
2023-03-11T22:30:52.294Z,-0.68
2023-03-11T22:33:24.435Z,-0.69
2023-03-11T22:35:56.185Z,-0.72
2023-03-11T22:38:28.388Z,-0.74
2023-03-11T22:41:00.408Z,-0.76
2023-03-11T22:43:32.390Z,-0.79
2023-03-11T22:46:05.408Z,-0.79
2023-03-11T22:48:37.645Z,-0.80
2023-03-11T22:51:10.914Z,-0.82
2023-03-11T22:53:43.217Z,-0.83
2023-03-11T22:56:15.427Z,-0.83
2023-03-11T22:58:47.564Z,-0.85
2023-03-11T23:01:20.125Z,-0.85
2023-03-11T23:03:52.125Z,-0.86
2023-03-11T23:06:24.168Z,-0.86
2023-03-11T23:08:54.974Z,-0.86
2023-03-11T23:11:27.072Z,-0.87
2023-03-11T23:13:59.815Z,-0.87
2023-03-11T23:16:32.248Z,-0.88
2023-03-11T23:19:04.250Z,-0.89
2023-03-11T23:21:36.610Z,-0.91
2023-03-11T23:24:11.032Z,-0.92
2023-03-11T23:26:43.065Z,-0.92
2023-03-11T23:29:15.478Z,-0.91
2023-03-11T23:31:47.468Z,-0.87
2023-03-11T23:34:19.408Z,-0.85
2023-03-11T23:36:51.431Z,-0.84
2023-03-11T23:39:21.957Z,-0.80
2023-03-11T23:41:53.914Z,-0.77
2023-03-11T23:44:25.905Z,-0.74
2023-03-11T23:46:57.894Z,-0.70
2023-03-11T23:49:29.836Z,-0.66
2023-03-11T23:52:01.879Z,-0.66
2023-03-11T23:54:33.899Z,-0.68
2023-03-11T23:57:05.990Z,-0.70
2023-03-11T23:59:38.196Z,-0.72
